createdAt,value
2019-02-15T13:13:27.747Z,35.20
2019-02-15T13:15:58.465Z,35.50
2019-02-15T13:18:29.099Z,35.50
2019-02-15T13:20:59.851Z,35.40
2019-02-15T13:23:30.465Z,36.10
2019-02-15T13:26:08.181Z,35.90
2019-02-15T13:28:33.368Z,35.90
2019-02-15T13:31:03.971Z,36.10
2019-02-15T13:33:34.777Z,36.70
2019-02-15T13:36:05.819Z,36.70
2019-02-15T13:38:36.532Z,36.70
2019-02-15T13:41:13.933Z,36.10
2019-02-15T13:43:44.498Z,35.70
2019-02-15T13:46:16.888Z,35.60
2019-02-15T13:48:47.818Z,36.70
2019-02-15T13:51:18.424Z,36.70
2019-02-15T13:53:48.923Z,36.80
2019-02-15T13:56:19.623Z,36.80
2019-02-15T13:58:50.292Z,37.00
2019-02-15T14:01:21.092Z,37.10
2019-02-15T14:03:51.695Z,36.50
2019-02-15T14:06:22.395Z,36.60
2019-02-15T14:08:53.014Z,35.90
2019-02-15T14:11:23.585Z,36.20
2019-02-15T14:13:54.107Z,36.50
2019-02-15T14:16:24.783Z,36.50
2019-02-15T14:19:02.875Z,36.00
2019-02-15T14:21:33.549Z,36.50
2019-02-15T14:24:06.982Z,37.20
2019-02-15T14:26:40.191Z,35.70
2019-02-15T14:29:10.837Z,36.10
2019-02-15T14:31:41.452Z,36.70
2019-02-15T14:34:12.067Z,36.50
2019-02-15T14:36:42.931Z,36.80
2019-02-15T14:39:13.542Z,36.60
2019-02-15T14:41:48.787Z,36.20
2019-02-15T14:44:20.485Z,36.40
2019-02-15T14:46:51.027Z,36.20
2019-02-15T14:49:23.164Z,37.40
2019-02-15T14:51:53.903Z,37.60
2019-02-15T14:54:28.946Z,37.30
2019-02-15T14:56:59.867Z,38.00
2019-02-15T14:59:30.432Z,39.30
2019-02-15T15:02:01.072Z,38.30
2019-02-15T15:04:31.688Z,37.90
2019-02-15T15:07:02.652Z,38.20
2019-02-15T15:09:33.192Z,38.30
2019-02-15T15:12:03.918Z,38.90
2019-02-15T15:14:39.910Z,39.10
2019-02-15T15:17:10.491Z,40.30
2019-02-15T15:19:41.906Z,40.10
2019-02-15T15:22:12.510Z,40.10
2019-02-15T15:24:43.112Z,40.30
2019-02-15T15:27:13.777Z,40.00
2019-02-15T15:29:46.989Z,40.10
2019-02-15T15:32:23.829Z,39.80
2019-02-15T15:34:59.048Z,39.90
2019-02-15T15:37:29.797Z,39.90
2019-02-15T15:40:00.392Z,39.90
2019-02-15T15:42:30.937Z,40.00
2019-02-15T15:45:01.511Z,40.00
2019-02-15T15:47:33.298Z,39.90
2019-02-15T15:50:04.563Z,40.10
2019-02-15T15:52:35.141Z,40.00
2019-02-15T15:55:05.895Z,40.20
2019-02-15T15:57:36.508Z,40.50
2019-02-15T16:00:10.335Z,40.70
2019-02-15T16:02:40.947Z,41.00
2019-02-15T16:05:13.915Z,41.20
2019-02-15T16:07:47.395Z,41.50
2019-02-15T16:10:17.987Z,42.00
2019-02-15T16:12:50.226Z,42.10
2019-02-15T16:15:20.802Z,42.30
2019-02-15T16:17:51.543Z,42.70
2019-02-15T16:20:33.153Z,43.10
2019-02-15T16:23:06.739Z,43.20
2019-02-15T16:25:37.304Z,43.60
2019-02-15T16:28:07.835Z,43.80
2019-02-15T16:30:41.836Z,44.00
2019-02-15T16:33:14.266Z,44.40
2019-02-15T16:35:44.922Z,45.00
2019-02-15T16:38:15.602Z,45.10
2019-02-15T16:40:49.325Z,45.40
2019-02-15T16:43:19.935Z,45.30
2019-02-15T16:45:50.777Z,45.40
2019-02-15T16:48:21.387Z,45.10
2019-02-15T16:50:51.901Z,45.10
2019-02-15T16:53:22.611Z,44.40
2019-02-15T16:55:53.349Z,44.00
2019-02-15T16:58:24.000Z,43.60
2019-02-15T17:00:54.643Z,44.10
2019-02-15T17:03:25.307Z,43.80
2019-02-15T17:05:55.993Z,44.00
2019-02-15T17:08:28.041Z,44.10
2019-02-15T17:10:58.704Z,44.20
2019-02-15T17:13:29.308Z,44.30
2019-02-15T17:15:59.847Z,44.20
2019-02-15T17:18:30.607Z,44.30
2019-02-15T17:21:01.200Z,44.20
2019-02-15T17:23:31.993Z,44.30
2019-02-15T17:26:02.783Z,44.40
2019-02-15T17:28:33.671Z,44.80
2019-02-15T17:31:04.540Z,44.40
2019-02-15T17:33:35.083Z,44.40
2019-02-15T17:36:05.639Z,44.50
2019-02-15T17:38:36.323Z,44.60
2019-02-15T17:41:06.934Z,44.60
2019-02-15T17:43:37.555Z,44.70
2019-02-15T17:46:08.290Z,44.50
2019-02-15T17:48:38.964Z,44.50
2019-02-15T17:51:09.953Z,44.60
2019-02-15T17:53:40.607Z,44.70
2019-02-15T17:56:11.427Z,44.90
2019-02-15T17:58:42.091Z,45.10
2019-02-15T18:01:12.736Z,45.10
2019-02-15T18:03:43.603Z,45.20
2019-02-15T18:06:14.212Z,45.40
2019-02-15T18:08:44.870Z,45.50
2019-02-15T18:11:15.504Z,45.70
2019-02-15T18:13:46.084Z,45.70
2019-02-15T18:16:16.712Z,45.80
2019-02-15T18:18:52.607Z,45.70
2019-02-15T18:21:25.189Z,45.60
2019-02-15T18:23:55.801Z,45.40
2019-02-15T18:26:26.401Z,45.60
2019-02-15T18:28:56.983Z,45.70
2019-02-15T18:31:27.539Z,45.80
2019-02-15T18:33:58.118Z,46.00
2019-02-15T18:36:28.732Z,46.30
2019-02-15T18:38:59.554Z,46.50
2019-02-15T18:41:30.396Z,46.90
2019-02-15T18:44:00.967Z,47.20
2019-02-15T18:46:31.560Z,47.40
2019-02-15T18:49:02.139Z,47.60
2019-02-15T18:51:32.727Z,47.50
2019-02-15T18:54:03.390Z,47.30
2019-02-15T18:56:34.005Z,47.10
2019-02-15T18:59:05.023Z,47.00
2019-02-15T19:01:35.782Z,47.20
2019-02-15T19:04:06.543Z,47.40
2019-02-15T19:06:37.165Z,47.30
2019-02-15T19:09:09.089Z,47.40
2019-02-15T19:11:43.871Z,47.50
2019-02-15T19:14:14.571Z,47.70
2019-02-15T19:16:45.228Z,48.00
2019-02-15T19:19:17.998Z,48.30
2019-02-15T19:21:49.882Z,48.70
2019-02-15T19:24:22.324Z,49.00
2019-02-15T19:26:52.933Z,49.30
2019-02-15T19:29:23.427Z,50.40
2019-02-15T19:31:54.424Z,50.40
2019-02-15T19:34:25.192Z,50.50
2019-02-15T19:36:57.715Z,50.40
2019-02-15T19:39:28.501Z,50.50
2019-02-15T19:41:59.289Z,50.90
2019-02-15T19:44:29.923Z,51.00
2019-02-15T19:47:00.892Z,51.20
2019-02-15T19:49:38.624Z,51.40
2019-02-15T19:52:09.145Z,51.50
2019-02-15T19:54:39.748Z,50.90
2019-02-15T19:57:10.797Z,50.40
2019-02-15T19:59:41.768Z,49.40
2019-02-15T20:02:16.231Z,49.40
2019-02-15T20:04:46.160Z,50.20
2019-02-15T20:07:22.585Z,50.40
2019-02-15T20:09:53.459Z,50.40
2019-02-15T20:12:23.976Z,50.30
2019-02-15T20:14:54.710Z,50.30
2019-02-15T20:17:25.489Z,50.40
2019-02-15T20:19:56.146Z,50.50
2019-02-15T20:22:33.812Z,50.40
2019-02-15T20:25:06.443Z,50.60
2019-02-15T20:27:41.303Z,50.50
2019-02-15T20:30:16.439Z,50.60
2019-02-15T20:33:13.226Z,50.70
2019-02-15T20:35:58.175Z,50.70
2019-02-15T20:38:32.204Z,50.60
2019-02-15T20:41:06.465Z,50.80
2019-02-15T20:43:37.799Z,51.30
2019-02-15T20:46:09.105Z,51.00
2019-02-15T20:48:42.108Z,51.10
2019-02-15T20:51:14.987Z,51.10
2019-02-15T20:53:45.994Z,51.10
2019-02-15T20:56:32.274Z,51.30
2019-02-15T20:59:02.304Z,51.30
2019-02-15T21:01:32.234Z,51.40
2019-02-15T21:04:03.212Z,51.90
2019-02-15T21:06:33.817Z,52.20
2019-02-15T21:09:06.044Z,52.30
2019-02-15T21:11:36.714Z,52.40
2019-02-15T21:14:09.027Z,52.70
2019-02-15T21:16:39.885Z,52.80
2019-02-15T21:19:15.863Z,52.80
2019-02-15T21:21:48.602Z,53.10
2019-02-15T21:24:19.270Z,53.10
2019-02-15T21:26:49.957Z,53.20
2019-02-15T21:29:19.653Z,53.70
2019-02-15T21:31:49.234Z,53.90
2019-02-15T21:34:20.817Z,54.20
2019-02-15T21:36:52.900Z,54.40
2019-02-15T21:39:25.459Z,54.80
2019-02-15T21:41:57.911Z,54.80
2019-02-15T21:44:27.381Z,54.70
2019-02-15T21:46:56.919Z,54.90
2019-02-15T21:49:27.332Z,54.80
2019-02-15T21:51:57.178Z,54.90
2019-02-15T21:54:26.695Z,55.10
2019-02-15T21:56:56.327Z,55.30
2019-02-15T21:59:25.829Z,55.50
2019-02-15T22:01:55.591Z,55.60
2019-02-15T22:04:25.180Z,55.40
2019-02-15T22:06:54.689Z,55.50
2019-02-15T22:09:24.260Z,55.60
2019-02-15T22:11:53.809Z,55.50
2019-02-15T22:14:23.327Z,55.60
2019-02-15T22:16:52.917Z,55.50
2019-02-15T22:19:22.650Z,55.40
2019-02-15T22:21:53.393Z,55.50
2019-02-15T22:24:22.971Z,55.50
2019-02-15T22:26:52.503Z,55.70
2019-02-15T22:29:21.992Z,55.60
2019-02-15T22:31:51.578Z,55.60
2019-02-15T22:34:21.051Z,55.50
2019-02-15T22:36:50.502Z,55.30
2019-02-15T22:39:20.063Z,55.10
2019-02-15T22:41:50.187Z,55.00
2019-02-15T22:44:19.746Z,54.70
2019-02-15T22:46:49.255Z,54.70
2019-02-15T22:49:18.826Z,54.70
2019-02-15T22:51:48.316Z,54.70
2019-02-15T22:54:17.828Z,55.10
2019-02-15T22:56:47.564Z,55.10
2019-02-15T22:59:18.022Z,55.10
2019-02-15T23:01:47.507Z,55.50
2019-02-15T23:04:17.187Z,55.70
2019-02-15T23:06:47.116Z,55.90
2019-02-15T23:09:26.185Z,56.20
2019-02-15T23:11:55.728Z,56.30
2019-02-15T23:14:28.032Z,56.60
2019-02-15T23:16:57.567Z,56.90
2019-02-15T23:19:27.083Z,57.20
2019-02-15T23:21:56.565Z,57.40
2019-02-15T23:24:26.185Z,57.80
2019-02-15T23:26:58.545Z,58.10
2019-02-15T23:29:29.489Z,58.40
2019-02-15T23:32:03.031Z,58.20
2019-02-15T23:34:33.768Z,58.10
2019-02-15T23:37:06.694Z,58.00
2019-02-15T23:39:36.340Z,58.00
2019-02-15T23:42:05.957Z,58.00
2019-02-15T23:44:39.896Z,57.60
2019-02-15T23:47:09.360Z,57.70
2019-02-15T23:49:43.213Z,57.80
2019-02-15T23:52:15.557Z,57.80
2019-02-15T23:54:47.140Z,57.80
2019-02-15T23:57:16.878Z,58.10
2019-02-15T23:59:46.702Z,58.20
